createdAt,value
2017-09-10T00:00:34.368Z,99.90
2017-09-10T00:03:01.888Z,99.90
2017-09-10T00:05:29.388Z,99.90
2017-09-10T00:07:56.948Z,99.90
2017-09-10T00:10:24.457Z,99.90
2017-09-10T00:12:51.966Z,99.90
2017-09-10T00:15:20.162Z,99.90
2017-09-10T00:17:47.667Z,99.90
2017-09-10T00:20:15.166Z,99.90
2017-09-10T00:22:42.726Z,99.90
2017-09-10T00:25:10.256Z,99.90
2017-09-10T00:27:37.772Z,99.90
2017-09-10T00:30:05.347Z,99.90
2017-09-10T00:32:32.848Z,99.90
2017-09-10T00:35:00.382Z,99.90
2017-09-10T00:37:27.928Z,99.90
2017-09-10T00:39:55.436Z,99.90
2017-09-10T00:42:22.940Z,99.90
2017-09-10T00:44:50.524Z,99.90
2017-09-10T00:47:18.032Z,99.90
2017-09-10T00:49:45.535Z,99.90
2017-09-10T00:52:12.871Z,99.90
2017-09-10T00:54:40.376Z,99.90
2017-09-10T00:57:07.879Z,99.90
2017-09-10T00:59:35.694Z,99.90
2017-09-10T01:02:03.220Z,99.90
2017-09-10T01:04:30.588Z,99.90
2017-09-10T01:06:58.090Z,99.90
2017-09-10T01:09:25.599Z,99.90
2017-09-10T01:11:53.413Z,99.90
2017-09-10T01:14:20.935Z,99.90
2017-09-10T01:16:48.439Z,99.90
2017-09-10T01:19:16.332Z,99.90
2017-09-10T01:21:43.913Z,99.90
2017-09-10T01:24:11.439Z,99.90
2017-09-10T01:26:39.423Z,99.90
2017-09-10T01:29:06.999Z,99.90
2017-09-10T01:31:34.563Z,99.90
2017-09-10T01:34:02.155Z,99.90
2017-09-10T01:36:29.658Z,99.90
2017-09-10T01:38:57.307Z,99.90
2017-09-10T01:41:24.867Z,99.90
2017-09-10T01:43:52.508Z,99.90
2017-09-10T01:46:20.779Z,99.90
2017-09-10T01:48:48.719Z,99.90
2017-09-10T01:51:17.364Z,99.90
2017-09-10T01:53:45.295Z,99.90
2017-09-10T01:56:13.009Z,99.90
2017-09-10T01:58:40.807Z,99.90
2017-09-10T02:01:08.356Z,99.90
2017-09-10T02:03:36.485Z,99.90
2017-09-10T02:06:04.423Z,99.90
2017-09-10T02:08:32.087Z,99.90
2017-09-10T02:10:59.739Z,99.90
2017-09-10T02:13:27.571Z,99.90
2017-09-10T02:15:55.534Z,99.90
2017-09-10T02:18:23.061Z,99.90
2017-09-10T02:20:50.671Z,99.90
2017-09-10T02:23:18.175Z,99.90
2017-09-10T02:25:45.905Z,99.90
2017-09-10T02:28:13.831Z,99.90
2017-09-10T02:30:41.336Z,99.90
2017-09-10T02:33:08.838Z,99.90
2017-09-10T02:35:36.630Z,99.90
2017-09-10T02:38:04.135Z,99.90
2017-09-10T02:40:31.642Z,99.90
2017-09-10T02:42:59.444Z,99.90
2017-09-10T02:45:26.944Z,99.90
2017-09-10T02:47:54.443Z,99.90
2017-09-10T02:50:24.891Z,99.90
2017-09-10T02:52:52.395Z,99.90
2017-09-10T02:55:19.965Z,99.90
2017-09-10T02:57:47.517Z,99.90
2017-09-10T03:00:15.028Z,99.90
2017-09-10T03:02:42.979Z,99.90
2017-09-10T03:05:10.657Z,99.90
2017-09-10T03:07:38.235Z,99.90
2017-09-10T03:10:05.748Z,99.90
2017-09-10T03:12:33.590Z,99.90
2017-09-10T03:15:01.087Z,99.90
2017-09-10T03:17:28.744Z,99.90
2017-09-10T03:19:56.347Z,99.90
2017-09-10T03:22:23.847Z,99.90
2017-09-10T03:24:51.370Z,99.90
2017-09-10T03:27:18.895Z,99.90
2017-09-10T03:29:46.402Z,99.90
2017-09-10T03:32:13.975Z,99.90
2017-09-10T03:34:41.835Z,99.90
2017-09-10T03:37:09.334Z,99.90
2017-09-10T03:39:37.598Z,99.90
2017-09-10T03:42:06.626Z,99.90
2017-09-10T03:44:34.131Z,99.90
2017-09-10T03:47:01.632Z,99.90
2017-09-10T03:49:29.491Z,99.90
2017-09-10T03:51:57.759Z,99.90
2017-09-10T03:54:25.251Z,99.90
2017-09-10T03:56:52.795Z,99.90
2017-09-10T03:59:20.350Z,99.90
2017-09-10T04:01:47.865Z,99.90
2017-09-10T04:04:15.638Z,99.90
2017-09-10T04:06:43.139Z,99.90
2017-09-10T04:09:10.882Z,99.90
2017-09-10T04:11:38.463Z,99.90
2017-09-10T04:14:05.967Z,99.90
2017-09-10T04:16:33.458Z,99.90
2017-09-10T04:19:01.004Z,99.90
2017-09-10T04:21:29.272Z,99.90
2017-09-10T04:23:56.795Z,99.90
2017-09-10T04:26:24.395Z,99.90
2017-09-10T04:28:51.926Z,99.90
2017-09-10T04:31:19.455Z,99.90
2017-09-10T04:33:47.031Z,99.90
2017-09-10T04:36:14.534Z,99.90
2017-09-10T04:38:42.068Z,99.90
2017-09-10T04:41:09.989Z,99.90
2017-09-10T04:43:37.487Z,99.90
2017-09-10T04:46:05.000Z,99.90
2017-09-10T04:48:32.640Z,99.90
2017-09-10T04:51:00.142Z,99.90
2017-09-10T04:53:28.047Z,99.90
2017-09-10T04:55:56.085Z,99.90
2017-09-10T04:58:23.591Z,99.90
2017-09-10T05:00:51.086Z,99.90
2017-09-10T05:03:18.610Z,99.90
2017-09-10T05:05:46.207Z,99.90
2017-09-10T05:08:13.708Z,99.90
2017-09-10T05:10:41.256Z,99.90
2017-09-10T05:13:08.751Z,99.90
2017-09-10T05:15:36.252Z,99.90
2017-09-10T05:18:03.787Z,99.90
2017-09-10T05:20:31.327Z,99.90
2017-09-10T05:22:58.827Z,99.90
2017-09-10T05:25:26.418Z,99.90
2017-09-10T05:27:53.927Z,99.90
2017-09-10T05:30:22.243Z,99.90
2017-09-10T05:32:49.828Z,99.90
2017-09-10T05:35:17.362Z,99.90
2017-09-10T05:37:44.858Z,99.90
2017-09-10T05:40:12.683Z,99.90
2017-09-10T05:42:40.183Z,99.90
2017-09-10T05:45:08.369Z,99.90
2017-09-10T05:47:35.921Z,99.90
2017-09-10T05:50:03.431Z,99.90
2017-09-10T05:52:30.934Z,99.90
2017-09-10T05:54:58.506Z,99.90
2017-09-10T05:57:26.059Z,99.90
2017-09-10T05:59:53.563Z,99.90
2017-09-10T06:02:21.458Z,99.90
2017-09-10T06:04:48.960Z,99.90
2017-09-10T06:07:16.458Z,99.90
2017-09-10T06:09:43.982Z,99.90
2017-09-10T06:12:11.604Z,99.90
2017-09-10T06:14:39.199Z,99.90
2017-09-10T06:17:07.007Z,99.90
2017-09-10T06:19:34.524Z,99.90
2017-09-10T06:22:02.022Z,99.90
2017-09-10T06:24:29.726Z,99.90
2017-09-10T06:26:57.279Z,99.90
2017-09-10T06:29:24.795Z,99.90
2017-09-10T06:31:52.365Z,99.90
2017-09-10T06:34:19.859Z,99.90
2017-09-10T06:36:47.364Z,99.90
2017-09-10T06:39:14.991Z,99.90
2017-09-10T06:41:42.500Z,99.90
2017-09-10T06:44:10.212Z,99.90
2017-09-10T06:46:37.779Z,99.90
2017-09-10T06:49:05.280Z,99.90
2017-09-10T06:51:33.234Z,99.90
2017-09-10T06:54:01.200Z,99.90
2017-09-10T06:56:28.754Z,99.90
2017-09-10T06:58:56.279Z,99.90
2017-09-10T07:01:23.863Z,99.90
2017-09-10T07:03:52.123Z,99.90
2017-09-10T07:06:19.623Z,99.90
2017-09-10T07:08:47.166Z,99.90
2017-09-10T07:11:14.674Z,99.90
2017-09-10T07:13:42.207Z,99.90
2017-09-10T07:16:10.010Z,99.90
2017-09-10T07:18:37.515Z,99.90
2017-09-10T07:21:05.010Z,99.90
2017-09-10T07:23:32.568Z,99.90
2017-09-10T07:26:00.068Z,99.90
2017-09-10T07:28:27.571Z,99.90
2017-09-10T07:30:55.116Z,99.90
2017-09-10T07:33:23.388Z,99.90
2017-09-10T07:35:50.896Z,99.90
2017-09-10T07:38:18.455Z,99.90
2017-09-10T07:40:45.959Z,99.90
2017-09-10T07:43:13.497Z,99.90
2017-09-10T07:45:41.075Z,99.90
2017-09-10T07:48:08.668Z,99.90
2017-09-10T07:50:36.159Z,99.90
2017-09-10T07:53:04.061Z,99.90
2017-09-10T07:55:31.561Z,99.90
2017-09-10T07:57:59.117Z,99.90
2017-09-10T08:00:26.766Z,99.90
2017-09-10T08:02:54.302Z,99.90
2017-09-10T08:05:21.843Z,99.90
2017-09-10T08:07:49.634Z,99.90
2017-09-10T08:10:17.164Z,99.90
2017-09-10T08:12:44.922Z,99.90
2017-09-10T08:15:12.558Z,99.90
2017-09-10T08:17:40.061Z,99.90
2017-09-10T08:20:07.585Z,99.90
2017-09-10T08:22:35.743Z,99.90
2017-09-10T08:25:03.251Z,99.90
2017-09-10T08:27:30.807Z,99.90
2017-09-10T08:29:59.187Z,99.90
2017-09-10T08:32:27.395Z,99.90
2017-09-10T08:34:54.948Z,99.90
2017-09-10T08:37:22.495Z,99.90
2017-09-10T08:39:50.036Z,99.90
2017-09-10T08:42:17.657Z,99.90
2017-09-10T08:44:45.263Z,99.90
2017-09-10T08:47:12.784Z,99.90
2017-09-10T08:49:40.288Z,99.90
2017-09-10T08:52:08.319Z,99.90
2017-09-10T08:54:35.819Z,99.90
2017-09-10T08:57:03.355Z,99.90
2017-09-10T08:59:30.905Z,99.90
2017-09-10T09:01:59.830Z,99.90
2017-09-10T09:04:27.732Z,99.90
2017-09-10T09:06:55.431Z,99.90
2017-09-10T09:09:23.240Z,99.90
2017-09-10T09:11:51.235Z,99.90
2017-09-10T09:14:18.735Z,99.90
2017-09-10T09:16:46.258Z,99.90
2017-09-10T09:19:14.015Z,99.90
2017-09-10T09:21:41.761Z,99.90
2017-09-10T09:24:09.291Z,99.90
2017-09-10T09:26:37.936Z,99.90
2017-09-10T09:29:05.538Z,99.90
2017-09-10T09:31:33.044Z,99.90
2017-09-10T09:34:00.945Z,99.90
2017-09-10T09:36:28.439Z,99.90
2017-09-10T09:38:55.955Z,99.90
2017-09-10T09:41:23.547Z,99.90
2017-09-10T09:43:51.509Z,99.90
2017-09-10T09:46:19.060Z,99.90
2017-09-10T09:48:46.622Z,99.90
2017-09-10T09:51:14.411Z,99.90
2017-09-10T09:53:41.915Z,99.90
2017-09-10T09:56:09.427Z,99.90
2017-09-10T09:58:37.019Z,99.90
2017-09-10T10:01:04.531Z,99.90
2017-09-10T10:03:32.035Z,99.90
2017-09-10T10:05:59.627Z,99.90
2017-09-10T10:08:27.124Z,99.90
2017-09-10T10:10:54.622Z,99.90
2017-09-10T10:13:22.406Z,99.90
2017-09-10T10:15:49.967Z,99.60
2017-09-10T10:18:17.530Z,99.90
2017-09-10T10:20:45.096Z,99.70
2017-09-10T10:23:12.623Z,96.10
2017-09-10T10:25:40.119Z,94.30
2017-09-10T10:28:07.994Z,94.70
2017-09-10T10:30:35.498Z,96.20
2017-09-10T10:33:02.995Z,96.80
2017-09-10T10:35:30.810Z,95.50
2017-09-10T10:37:58.455Z,95.30
2017-09-10T10:40:27.016Z,97.10
2017-09-10T10:42:54.619Z,96.90
2017-09-10T10:45:22.329Z,95.70
2017-09-10T10:47:49.826Z,93.70
2017-09-10T10:50:17.733Z,92.60
2017-09-10T10:52:45.229Z,93.00
2017-09-10T10:55:12.735Z,93.60
2017-09-10T10:57:40.286Z,93.20
2017-09-10T11:00:07.806Z,91.90
2017-09-10T11:02:36.685Z,93.10
2017-09-10T11:05:05.173Z,92.10
2017-09-10T11:07:34.081Z,93.90
2017-09-10T11:10:02.515Z,93.50
2017-09-10T11:12:30.617Z,93.30
2017-09-10T11:14:58.319Z,92.30
2017-09-10T11:17:25.984Z,91.70
2017-09-10T11:19:53.617Z,92.60
2017-09-10T11:22:22.030Z,91.60
2017-09-10T11:24:50.623Z,92.70
2017-09-10T11:27:18.851Z,93.10
2017-09-10T11:29:47.479Z,92.00
2017-09-10T11:32:14.971Z,90.80
2017-09-10T11:34:42.527Z,91.40
2017-09-10T11:37:10.027Z,92.20
2017-09-10T11:39:37.518Z,92.20
2017-09-10T11:42:05.179Z,92.90
2017-09-10T11:44:32.738Z,92.40
2017-09-10T11:47:00.270Z,91.80
2017-09-10T11:49:27.910Z,90.00
2017-09-10T11:51:55.420Z,86.60
2017-09-10T11:54:22.914Z,81.00
2017-09-10T11:56:50.829Z,81.60
2017-09-10T11:59:18.327Z,74.30
2017-09-10T12:01:46.934Z,70.90
2017-09-10T12:04:14.478Z,69.20
2017-09-10T12:06:41.983Z,63.70
2017-09-10T12:09:09.491Z,63.20
2017-09-10T12:11:37.504Z,65.10
2017-09-10T12:14:05.023Z,70.30
2017-09-10T12:16:32.579Z,73.60
2017-09-10T12:19:00.723Z,71.80
2017-09-10T12:21:28.227Z,75.60
2017-09-10T12:23:55.735Z,76.00
2017-09-10T12:26:23.473Z,74.50
2017-09-10T12:28:51.823Z,65.70
2017-09-10T12:31:19.459Z,65.80
2017-09-10T12:33:47.667Z,62.10
2017-09-10T12:36:17.108Z,56.50
2017-09-10T12:38:45.099Z,54.30
2017-09-10T12:41:13.975Z,54.00
2017-09-10T12:43:44.496Z,53.50
2017-09-10T12:46:12.065Z,59.30
2017-09-10T12:48:39.639Z,59.00
2017-09-10T12:51:07.247Z,62.10
2017-09-10T12:53:34.749Z,64.20
2017-09-10T12:56:02.389Z,67.10
2017-09-10T12:58:29.995Z,67.90
2017-09-10T13:00:57.507Z,72.30
2017-09-10T13:03:25.208Z,70.10
2017-09-10T13:05:53.920Z,73.50
2017-09-10T13:08:21.715Z,72.70
2017-09-10T13:10:50.715Z,67.40
2017-09-10T13:13:18.223Z,67.30
2017-09-10T13:15:45.839Z,63.90
2017-09-10T13:18:13.437Z,61.50
2017-09-10T13:20:41.091Z,58.80
2017-09-10T13:23:09.048Z,58.10
2017-09-10T13:25:36.562Z,56.00
2017-09-10T13:28:04.072Z,56.00
2017-09-10T13:30:31.670Z,55.70
2017-09-10T13:32:59.250Z,58.30
2017-09-10T13:35:26.747Z,59.10
2017-09-10T13:37:54.399Z,60.80
2017-09-10T13:40:21.903Z,59.80
2017-09-10T13:42:50.279Z,61.40
2017-09-10T13:45:17.861Z,61.30
2017-09-10T13:47:46.401Z,61.90
2017-09-10T13:50:13.979Z,59.20
2017-09-10T13:52:41.831Z,58.70
2017-09-10T13:55:09.590Z,58.30
2017-09-10T13:57:37.208Z,59.20
2017-09-10T14:00:04.796Z,64.40
2017-09-10T14:02:33.611Z,73.60
2017-09-10T14:05:01.508Z,81.70
2017-09-10T14:07:29.288Z,88.60
2017-09-10T14:09:56.909Z,91.00
2017-09-10T14:12:24.584Z,91.90
2017-09-10T14:14:52.939Z,94.00
2017-09-10T14:17:21.071Z,95.40
2017-09-10T14:19:48.593Z,96.20
2017-09-10T14:22:16.577Z,96.80
2017-09-10T14:24:44.158Z,96.80
2017-09-10T14:27:11.723Z,97.90
2017-09-10T14:29:39.371Z,99.10
2017-09-10T14:32:06.891Z,98.20
2017-09-10T14:34:34.614Z,98.00
2017-09-10T14:37:02.766Z,97.90
2017-09-10T14:39:30.317Z,98.60
2017-09-10T14:41:57.841Z,99.10
2017-09-10T14:44:25.731Z,99.10
2017-09-10T14:46:53.251Z,99.60
2017-09-10T14:49:21.419Z,99.50
2017-09-10T14:51:48.942Z,99.90
2017-09-10T14:54:16.457Z,99.50
2017-09-10T14:56:44.277Z,99.90
2017-09-10T14:59:12.166Z,99.80
2017-09-10T15:01:39.735Z,99.90
2017-09-10T15:04:07.243Z,99.50
2017-09-10T15:06:34.828Z,97.60
2017-09-10T15:09:02.395Z,97.10
2017-09-10T15:11:29.961Z,96.60
2017-09-10T15:13:57.768Z,95.30
2017-09-10T15:16:25.275Z,93.60
2017-09-10T15:18:53.430Z,94.30
2017-09-10T15:21:22.040Z,93.40
2017-09-10T15:23:50.003Z,93.80
2017-09-10T15:26:18.311Z,94.00
2017-09-10T15:28:47.742Z,94.10
2017-09-10T15:31:15.409Z,93.70
2017-09-10T15:33:42.915Z,93.50
2017-09-10T15:36:11.783Z,94.10
2017-09-10T15:38:39.283Z,93.30
2017-09-10T15:41:07.031Z,92.70
2017-09-10T15:43:34.588Z,91.70
2017-09-10T15:46:02.103Z,92.70
2017-09-10T15:48:30.263Z,93.10
2017-09-10T15:50:57.971Z,93.30
2017-09-10T15:53:25.590Z,93.90
2017-09-10T15:55:53.089Z,93.50
2017-09-10T15:58:21.334Z,93.40
2017-09-10T16:00:48.891Z,93.30
2017-09-10T16:03:16.623Z,93.10
2017-09-10T16:05:44.659Z,92.60
2017-09-10T16:08:12.173Z,92.70
2017-09-10T16:10:40.255Z,93.00
2017-09-10T16:13:07.928Z,93.10
2017-09-10T16:15:36.044Z,93.80
2017-09-10T16:18:03.663Z,93.80
2017-09-10T16:20:31.607Z,94.50
2017-09-10T16:22:59.115Z,94.40
2017-09-10T16:25:26.619Z,95.20
2017-09-10T16:27:54.192Z,94.70
2017-09-10T16:30:21.718Z,95.50
2017-09-10T16:32:49.476Z,94.90
2017-09-10T16:35:17.427Z,95.90
2017-09-10T16:37:44.936Z,96.40
2017-09-10T16:40:12.431Z,95.90
2017-09-10T16:42:40.119Z,95.90
2017-09-10T16:45:08.427Z,97.80
2017-09-10T16:47:36.231Z,98.10
2017-09-10T16:50:04.038Z,97.10
2017-09-10T16:52:31.567Z,98.70
2017-09-10T16:54:59.070Z,98.50
2017-09-10T16:57:27.627Z,99.90
2017-09-10T16:59:55.180Z,99.90
2017-09-10T17:02:22.680Z,99.90
2017-09-10T17:04:50.239Z,99.90
2017-09-10T17:07:17.755Z,99.90
2017-09-10T17:09:45.299Z,99.90
2017-09-10T17:12:13.814Z,99.90
2017-09-10T17:14:41.338Z,99.90
2017-09-10T17:17:09.432Z,99.90
2017-09-10T17:19:38.003Z,99.90
2017-09-10T17:22:06.892Z,99.90
2017-09-10T17:24:34.443Z,99.90
2017-09-10T17:27:02.391Z,99.90
2017-09-10T17:29:29.955Z,99.90
2017-09-10T17:31:57.567Z,99.90
2017-09-10T17:34:25.138Z,99.90
2017-09-10T17:36:52.670Z,99.90
2017-09-10T17:39:20.174Z,99.90
2017-09-10T17:41:47.859Z,99.90
2017-09-10T17:44:15.383Z,99.90
2017-09-10T17:46:42.970Z,99.90
2017-09-10T17:49:10.551Z,99.90
2017-09-10T17:51:38.959Z,99.90
2017-09-10T17:54:06.571Z,99.90
2017-09-10T17:56:34.299Z,99.90
2017-09-10T17:59:01.807Z,99.90
2017-09-10T18:01:29.320Z,99.90
2017-09-10T18:03:57.338Z,99.90
2017-09-10T18:06:24.885Z,99.90
2017-09-10T18:08:52.554Z,99.90
2017-09-10T18:11:20.352Z,99.90
2017-09-10T18:13:47.908Z,99.90
2017-09-10T18:16:16.456Z,99.90
2017-09-10T18:18:44.333Z,99.90
2017-09-10T18:21:11.889Z,99.90
2017-09-10T18:23:39.400Z,99.90
2017-09-10T18:26:06.978Z,99.90
2017-09-10T18:28:34.540Z,99.90
2017-09-10T18:31:02.600Z,99.90
2017-09-10T18:33:30.274Z,99.90
2017-09-10T18:35:58.072Z,99.90
2017-09-10T18:38:25.588Z,99.90
2017-09-10T18:40:53.363Z,99.90
2017-09-10T18:43:20.876Z,99.90
2017-09-10T18:45:48.382Z,99.90
2017-09-10T18:48:16.171Z,99.90
2017-09-10T18:50:43.691Z,99.90
2017-09-10T18:53:11.299Z,99.90
2017-09-10T18:55:39.191Z,99.90
2017-09-10T18:58:06.895Z,99.90
2017-09-10T19:00:34.460Z,99.90
2017-09-10T19:03:02.040Z,99.90
2017-09-10T19:05:29.555Z,99.90
2017-09-10T19:07:57.055Z,99.90
2017-09-10T19:10:24.603Z,99.90
2017-09-10T19:12:52.887Z,99.90
2017-09-10T19:15:20.387Z,99.90
2017-09-10T19:17:48.704Z,99.90
2017-09-10T19:20:16.226Z,99.90
2017-09-10T19:22:43.867Z,99.90
2017-09-10T19:25:11.759Z,99.90
2017-09-10T19:27:39.350Z,99.90
2017-09-10T19:30:07.488Z,99.90
2017-09-10T19:32:35.381Z,99.90
2017-09-10T19:35:02.921Z,99.90
2017-09-10T19:37:30.436Z,99.90
2017-09-10T19:39:58.020Z,99.90
2017-09-10T19:42:26.447Z,99.90
2017-09-10T19:44:53.959Z,99.90
2017-09-10T19:47:22.515Z,99.90
2017-09-10T19:49:50.037Z,99.90
2017-09-10T19:52:17.547Z,99.90
2017-09-10T19:54:45.409Z,99.90
2017-09-10T19:57:12.916Z,99.90
2017-09-10T19:59:40.592Z,99.90
2017-09-10T20:02:08.410Z,99.90
2017-09-10T20:04:35.946Z,99.90
2017-09-10T20:07:03.455Z,99.90
2017-09-10T20:09:31.934Z,99.90
2017-09-10T20:11:59.478Z,99.90
2017-09-10T20:14:27.027Z,99.90
2017-09-10T20:16:54.887Z,99.90
2017-09-10T20:19:22.710Z,99.90
2017-09-10T20:21:50.912Z,99.90
2017-09-10T20:24:18.649Z,99.90
2017-09-10T20:26:46.682Z,99.90
2017-09-10T20:29:14.180Z,99.90
2017-09-10T20:31:41.675Z,99.90
2017-09-10T20:34:09.609Z,99.90
2017-09-10T20:36:37.139Z,99.90
2017-09-10T20:39:04.682Z,99.90
2017-09-10T20:41:32.578Z,99.90
2017-09-10T20:44:00.073Z,99.90
2017-09-10T20:46:27.587Z,99.90
2017-09-10T20:48:55.127Z,99.90
2017-09-10T20:51:22.683Z,99.90
2017-09-10T20:53:50.982Z,99.90
2017-09-10T20:56:18.626Z,99.90
2017-09-10T20:58:46.943Z,99.90
2017-09-10T21:01:14.463Z,99.90
2017-09-10T21:03:42.047Z,99.90
2017-09-10T21:06:09.550Z,99.90
2017-09-10T21:08:37.051Z,99.90
2017-09-10T21:11:04.744Z,99.90
2017-09-10T21:13:32.279Z,99.90
2017-09-10T21:15:59.943Z,99.90
2017-09-10T21:18:27.819Z,99.90
2017-09-10T21:20:55.320Z,99.90
2017-09-10T21:23:22.846Z,99.90
2017-09-10T21:25:50.439Z,99.90
2017-09-10T21:28:17.949Z,99.90
2017-09-10T21:30:45.457Z,99.90
2017-09-10T21:33:13.260Z,99.90
2017-09-10T21:35:40.767Z,99.90
2017-09-10T21:38:08.581Z,99.90
2017-09-10T21:40:36.375Z,99.90
2017-09-10T21:43:03.871Z,99.90
2017-09-10T21:45:31.412Z,99.90
2017-09-10T21:47:59.016Z,99.90
2017-09-10T21:50:26.622Z,99.90
2017-09-10T21:52:54.131Z,99.90
2017-09-10T21:55:21.691Z,99.90
2017-09-10T21:57:49.326Z,99.90
2017-09-10T22:00:16.942Z,99.90
2017-09-10T22:02:44.548Z,99.90
2017-09-10T22:05:12.048Z,99.90
2017-09-10T22:07:39.563Z,99.90
2017-09-10T22:10:07.458Z,99.90
2017-09-10T22:12:34.967Z,99.90
2017-09-10T22:15:02.496Z,99.90
2017-09-10T22:17:30.331Z,99.90
2017-09-10T22:19:57.848Z,99.90
2017-09-10T22:22:25.423Z,99.90
2017-09-10T22:24:53.073Z,99.90
2017-09-10T22:27:20.636Z,99.90
2017-09-10T22:29:48.235Z,99.90
2017-09-10T22:32:15.819Z,99.90
2017-09-10T22:34:43.999Z,99.90
2017-09-10T22:37:11.507Z,99.90
2017-09-10T22:39:39.058Z,99.90
2017-09-10T22:42:06.571Z,99.90
2017-09-10T22:44:34.071Z,99.90
2017-09-10T22:47:01.849Z,99.90
2017-09-10T22:49:29.354Z,99.90
2017-09-10T22:51:56.906Z,99.90
2017-09-10T22:54:24.475Z,99.90
2017-09-10T22:56:51.999Z,99.90
2017-09-10T22:59:19.643Z,99.90
2017-09-10T23:01:47.405Z,99.90
2017-09-10T23:04:14.935Z,99.90
2017-09-10T23:06:42.507Z,99.90
2017-09-10T23:09:10.321Z,99.90
2017-09-10T23:11:37.998Z,99.90
2017-09-10T23:14:05.566Z,99.90
2017-09-10T23:16:33.127Z,99.90
2017-09-10T23:19:00.635Z,99.90
2017-09-10T23:21:28.231Z,99.90
2017-09-10T23:23:56.110Z,99.90
2017-09-10T23:26:23.857Z,99.90
2017-09-10T23:28:51.426Z,99.90
2017-09-10T23:31:20.179Z,99.90
2017-09-10T23:33:47.680Z,99.90
2017-09-10T23:36:15.250Z,99.90
2017-09-10T23:38:42.915Z,99.90
2017-09-10T23:41:10.521Z,99.90
2017-09-10T23:43:38.264Z,99.90
2017-09-10T23:46:06.130Z,99.90
2017-09-10T23:48:33.626Z,99.90
2017-09-10T23:51:01.123Z,99.90
2017-09-10T23:53:28.952Z,99.90
2017-09-10T23:55:56.451Z,99.90
2017-09-10T23:58:24.018Z,99.90
